createdAt,value
2022-10-09T00:01:31.657Z,80.85
2022-10-09T00:04:00.259Z,78.89
2022-10-09T00:06:31.880Z,78.31
2022-10-09T00:09:02.113Z,76.95
2022-10-09T00:11:31.309Z,78.19
2022-10-09T00:14:00.408Z,78.15
2022-10-09T00:16:28.807Z,78.15
2022-10-09T00:18:56.984Z,79.31
2022-10-09T00:21:31.465Z,76.83
2022-10-09T00:24:04.216Z,76.11
2022-10-09T00:26:32.754Z,75.67
2022-10-09T00:29:00.725Z,78.24
2022-10-09T00:31:28.384Z,79.73
2022-10-09T00:33:56.309Z,80.37
2022-10-09T00:36:26.140Z,80.90
2022-10-09T00:38:55.473Z,81.57
2022-10-09T00:41:28.807Z,82.94
2022-10-09T00:44:24.801Z,83.75
2022-10-09T00:46:53.230Z,84.16
2022-10-09T00:49:33.323Z,84.50
2022-10-09T00:52:08.276Z,85.15
2022-10-09T00:54:40.430Z,84.83
2022-10-09T00:57:09.048Z,85.48
2022-10-09T00:59:37.384Z,86.04
2022-10-09T01:02:04.936Z,85.30
2022-10-09T01:04:32.623Z,85.88
2022-10-09T01:07:12.082Z,85.90
2022-10-09T01:09:54.659Z,85.19
2022-10-09T01:12:36.673Z,84.60
2022-10-09T01:15:24.971Z,84.91
2022-10-09T01:18:07.745Z,84.09
2022-10-09T01:20:55.112Z,85.06
2022-10-09T01:23:37.203Z,85.50
2022-10-09T01:26:51.097Z,86.08
2022-10-09T01:29:21.642Z,85.60
2022-10-09T01:31:51.916Z,85.21
2022-10-09T01:34:21.863Z,84.53
2022-10-09T01:36:51.476Z,85.15
2022-10-09T01:39:22.823Z,84.84
2022-10-09T01:41:53.026Z,85.04
2022-10-09T01:44:25.606Z,86.28
2022-10-09T01:46:57.276Z,86.76
2022-10-09T01:49:55.734Z,87.53
2022-10-09T01:52:45.907Z,87.01
2022-10-09T01:55:41.717Z,87.76
2022-10-09T01:58:17.874Z,88.87
2022-10-09T02:00:56.645Z,89.05
2022-10-09T02:03:29.570Z,88.26
2022-10-09T02:05:58.535Z,86.83
2022-10-09T02:08:32.791Z,87.01
2022-10-09T02:11:03.333Z,87.81
2022-10-09T02:13:33.455Z,88.42
2022-10-09T02:16:16.013Z,87.78
2022-10-09T02:18:47.448Z,87.04
2022-10-09T02:21:24.626Z,85.88
2022-10-09T02:23:53.964Z,85.81
2022-10-09T02:26:22.032Z,86.30
2022-10-09T02:28:52.781Z,86.57
2022-10-09T02:31:28.874Z,85.85
2022-10-09T02:34:03.750Z,86.13
2022-10-09T02:36:31.995Z,85.99
2022-10-09T02:39:00.834Z,86.24
2022-10-09T02:41:28.396Z,86.17
2022-10-09T02:43:56.653Z,86.71
2022-10-09T02:46:25.179Z,87.41
2022-10-09T02:48:52.950Z,87.13
2022-10-09T02:51:20.771Z,86.42
2022-10-09T02:53:48.481Z,86.52
2022-10-09T02:56:16.196Z,86.46
2022-10-09T02:58:43.733Z,84.04
2022-10-09T03:01:11.486Z,85.67
2022-10-09T03:03:39.062Z,86.32
2022-10-09T03:06:13.900Z,87.92
2022-10-09T03:08:48.696Z,87.76
2022-10-09T03:11:18.458Z,87.96
2022-10-09T03:13:46.470Z,87.70
2022-10-09T03:16:20.452Z,87.78
2022-10-09T03:18:50.120Z,88.31
2022-10-09T03:21:22.477Z,88.11
2022-10-09T03:23:50.648Z,87.95
2022-10-09T03:26:22.324Z,87.91
2022-10-09T03:28:52.729Z,88.21
2022-10-09T03:31:46.921Z,88.50
2022-10-09T03:34:14.708Z,87.68
2022-10-09T03:36:42.519Z,87.53
2022-10-09T03:39:10.660Z,86.96
2022-10-09T03:41:38.191Z,88.49
2022-10-09T03:44:05.970Z,89.00
2022-10-09T03:46:33.494Z,90.17
2022-10-09T03:49:01.132Z,89.67
2022-10-09T03:51:28.698Z,90.52
2022-10-09T03:53:56.246Z,88.87
2022-10-09T03:56:23.782Z,88.12
2022-10-09T03:58:51.505Z,89.34
2022-10-09T04:01:19.058Z,90.60
2022-10-09T04:03:46.659Z,91.65
2022-10-09T04:06:14.322Z,91.55
2022-10-09T04:08:41.903Z,91.36
2022-10-09T04:11:09.626Z,92.44
2022-10-09T04:13:37.183Z,92.29
2022-10-09T04:16:05.307Z,92.15
2022-10-09T04:18:32.838Z,93.43
2022-10-09T04:21:00.367Z,93.57
2022-10-09T04:23:28.614Z,93.77
2022-10-09T04:26:00.878Z,94.45
2022-10-09T04:28:31.450Z,93.52
2022-10-09T04:31:00.032Z,93.61
2022-10-09T04:33:27.931Z,94.19
2022-10-09T04:35:57.118Z,94.54
2022-10-09T04:38:25.608Z,94.51
2022-10-09T04:41:02.104Z,94.35
2022-10-09T04:43:30.261Z,95.13
2022-10-09T04:45:58.428Z,95.73
2022-10-09T04:48:26.869Z,96.44
2022-10-09T04:50:54.444Z,96.08
2022-10-09T04:53:22.017Z,95.36
2022-10-09T04:55:49.670Z,96.52
2022-10-09T04:58:17.336Z,96.28
2022-10-09T05:00:46.862Z,96.45
2022-10-09T05:03:14.559Z,95.62
2022-10-09T05:05:42.124Z,94.75
2022-10-09T05:08:09.843Z,93.76
2022-10-09T05:10:37.523Z,93.21
2022-10-09T05:13:05.208Z,94.11
2022-10-09T05:15:36.106Z,95.08
2022-10-09T05:18:03.774Z,95.73
2022-10-09T05:20:31.402Z,95.66
2022-10-09T05:22:59.089Z,93.10
2022-10-09T05:25:26.716Z,94.13
2022-10-09T05:27:54.241Z,92.95
2022-10-09T05:30:21.819Z,93.03
2022-10-09T05:32:50.049Z,93.07
2022-10-09T05:35:17.939Z,93.53
2022-10-09T05:37:46.273Z,92.95
2022-10-09T05:40:13.909Z,93.06
2022-10-09T05:42:41.545Z,90.92
2022-10-09T05:45:10.173Z,91.08
2022-10-09T05:47:37.728Z,90.65
2022-10-09T05:50:05.787Z,90.88
2022-10-09T05:52:35.213Z,90.68
2022-10-09T05:55:02.858Z,90.43
2022-10-09T05:57:30.454Z,90.47
2022-10-09T05:59:58.132Z,89.91
2022-10-09T06:02:25.684Z,89.25
2022-10-09T06:04:53.288Z,89.61
2022-10-09T06:07:20.896Z,89.06
2022-10-09T06:09:48.522Z,88.66
2022-10-09T06:12:16.044Z,87.65
2022-10-09T06:14:43.611Z,87.43
2022-10-09T06:17:12.574Z,86.94
2022-10-09T06:19:40.152Z,86.00
2022-10-09T06:22:07.695Z,85.50
2022-10-09T06:24:35.439Z,84.45
2022-10-09T06:27:03.172Z,84.11
2022-10-09T06:29:30.722Z,83.64
2022-10-09T06:31:58.994Z,81.94
2022-10-09T06:34:26.647Z,83.13
2022-10-09T06:36:54.204Z,81.30
2022-10-09T06:39:22.748Z,81.47
2022-10-09T06:41:50.983Z,81.42
2022-10-09T06:44:32.742Z,81.12
2022-10-09T06:47:00.776Z,81.30
2022-10-09T06:49:28.422Z,78.73
2022-10-09T06:51:55.998Z,79.38
2022-10-09T06:54:23.562Z,78.52
2022-10-09T06:56:51.102Z,79.26
2022-10-09T06:59:18.540Z,78.44
2022-10-09T07:01:46.195Z,77.73
2022-10-09T07:04:15.259Z,76.02
2022-10-09T07:06:47.692Z,74.60
2022-10-09T07:09:16.779Z,74.59
2022-10-09T07:11:49.316Z,74.07
2022-10-09T07:14:18.272Z,71.53
2022-10-09T07:16:48.635Z,72.52
2022-10-09T07:19:17.766Z,69.46
2022-10-09T07:21:48.066Z,68.04
2022-10-09T07:24:20.810Z,66.55
2022-10-09T07:26:49.308Z,67.36
2022-10-09T07:29:19.953Z,65.73
2022-10-09T07:31:47.849Z,66.99
2022-10-09T07:34:15.680Z,65.16
2022-10-09T07:46:08.837Z,60.85
2022-10-09T07:48:36.903Z,59.83
2022-10-09T07:51:19.544Z,58.70
2022-10-09T07:53:47.983Z,59.42
2022-10-09T07:56:21.275Z,58.40
2022-10-09T07:58:53.394Z,57.37
2022-10-09T08:01:22.290Z,55.88
2022-10-09T08:03:50.540Z,57.94
2022-10-09T08:06:19.378Z,57.08
2022-10-09T08:08:54.536Z,56.80
2022-10-09T08:11:24.553Z,55.61
2022-10-09T08:13:54.810Z,55.05
2022-10-09T08:16:24.855Z,54.54
2022-10-09T08:19:01.666Z,52.35
2022-10-09T08:21:30.060Z,52.21
2022-10-09T08:23:59.201Z,51.76
2022-10-09T08:26:30.044Z,51.36
2022-10-09T08:29:01.478Z,51.33
2022-10-09T08:31:29.801Z,50.74
2022-10-09T08:34:00.931Z,49.34
2022-10-09T08:36:29.088Z,51.05
2022-10-09T08:38:56.611Z,50.71
2022-10-09T08:41:53.092Z,50.20
2022-10-09T08:44:23.819Z,48.83
2022-10-09T08:47:17.589Z,49.58
2022-10-09T08:50:13.608Z,49.64
2022-10-09T08:53:31.231Z,48.67
2022-10-09T08:56:02.491Z,48.87
2022-10-09T08:58:38.079Z,46.68
2022-10-09T09:01:44.539Z,46.81
2022-10-09T09:04:45.636Z,46.16
2022-10-09T09:07:31.219Z,44.65
2022-10-09T09:11:21.389Z,46.07
2022-10-09T09:14:29.043Z,45.37
2022-10-09T09:17:36.975Z,43.98
2022-10-09T09:20:26.828Z,43.24
2022-10-09T09:22:56.327Z,44.42
2022-10-09T09:25:41.560Z,43.58
2022-10-09T09:28:33.351Z,42.88
2022-10-09T09:31:29.830Z,40.77
2022-10-09T09:34:12.689Z,43.19
2022-10-09T09:37:00.537Z,41.71
2022-10-09T09:42:23.172Z,41.86
2022-10-09T09:45:05.483Z,41.27
2022-10-09T09:47:45.640Z,40.17
2022-10-09T09:50:35.107Z,41.70
2022-10-09T09:53:14.623Z,41.11
2022-10-09T09:55:43.684Z,39.74
2022-10-09T09:58:18.275Z,40.64
2022-10-09T10:01:06.484Z,40.53
2022-10-09T10:03:36.847Z,39.96
2022-10-09T10:06:05.226Z,38.54
2022-10-09T10:08:36.219Z,39.51
2022-10-09T10:11:08.318Z,39.15
2022-10-09T10:13:49.927Z,39.59
2022-10-09T10:16:32.662Z,37.88
2022-10-09T10:19:20.193Z,37.41
2022-10-09T10:21:49.589Z,35.71
2022-10-09T10:24:27.735Z,37.92
2022-10-09T10:27:11.026Z,37.44
2022-10-09T10:29:44.037Z,36.30
2022-10-09T10:32:33.602Z,36.95
2022-10-09T10:35:17.189Z,36.61
2022-10-09T10:38:29.097Z,35.94
2022-10-09T10:41:06.441Z,35.02
2022-10-09T10:43:44.685Z,34.76
2022-10-09T10:46:53.726Z,34.14
2022-10-09T10:49:25.087Z,36.22
2022-10-09T10:52:08.509Z,34.10
2022-10-09T10:54:46.023Z,34.23
2022-10-09T10:57:18.892Z,34.64
2022-10-09T11:00:06.475Z,35.20
2022-10-09T11:03:03.461Z,34.98
2022-10-09T11:06:19.186Z,32.03
2022-10-09T11:09:04.308Z,33.40
2022-10-09T11:11:55.570Z,32.55
2022-10-09T11:15:18.254Z,33.80
2022-10-09T11:17:56.735Z,33.60
2022-10-09T11:21:05.374Z,33.63
2022-10-09T11:23:40.526Z,32.82
2022-10-09T11:26:44.058Z,33.09
2022-10-09T11:29:30.005Z,32.84
2022-10-09T11:32:13.779Z,30.60
2022-10-09T11:34:52.542Z,31.87
2022-10-09T11:37:28.608Z,32.09
2022-10-09T11:39:57.643Z,32.02
2022-10-09T11:42:27.182Z,32.13
2022-10-09T11:45:24.252Z,30.99
2022-10-09T11:48:14.710Z,30.92
2022-10-09T11:51:06.636Z,31.23
2022-10-09T11:53:37.576Z,31.99
2022-10-09T11:56:24.180Z,32.68
2022-10-09T11:59:00.490Z,30.94
2022-10-09T12:01:59.199Z,31.20
2022-10-09T12:04:53.843Z,30.54
2022-10-09T12:07:35.142Z,29.52
2022-10-09T12:10:33.612Z,29.27
2022-10-09T12:13:06.192Z,28.66
2022-10-09T12:15:51.530Z,29.87
2022-10-09T12:18:32.270Z,28.80
2022-10-09T12:21:18.921Z,29.33
2022-10-09T12:23:48.921Z,29.79
2022-10-09T12:26:21.823Z,27.91
2022-10-09T12:29:02.951Z,29.15
2022-10-09T12:31:37.283Z,29.48
2022-10-09T12:34:13.024Z,27.99
2022-10-09T12:36:40.583Z,27.84
2022-10-09T12:39:22.933Z,27.70
2022-10-09T12:42:01.128Z,27.46
2022-10-09T12:44:36.726Z,27.77
2022-10-09T12:47:30.356Z,26.44
2022-10-09T12:50:22.290Z,26.92
2022-10-09T12:53:04.467Z,26.45
2022-10-09T12:55:50.148Z,25.90
2022-10-09T12:58:31.736Z,27.42
2022-10-09T13:01:06.368Z,26.54
2022-10-09T13:03:57.767Z,26.53
2022-10-09T13:06:51.614Z,25.85
2022-10-09T13:09:47.878Z,25.25
2022-10-09T13:12:29.229Z,24.87
2022-10-09T13:15:04.607Z,25.02
2022-10-09T13:17:37.647Z,24.01
2022-10-09T13:20:29.097Z,24.64
2022-10-09T13:23:02.751Z,23.97
2022-10-09T13:25:40.646Z,23.43
2022-10-09T13:28:08.326Z,23.20
2022-10-09T13:30:36.078Z,22.83
2022-10-09T13:33:03.603Z,23.83
2022-10-09T13:35:34.616Z,23.27
2022-10-09T13:38:02.068Z,23.44
2022-10-09T13:40:30.065Z,23.30
2022-10-09T13:43:03.603Z,23.44
2022-10-09T13:45:31.092Z,22.86
2022-10-09T13:47:59.714Z,22.68
2022-10-09T13:50:27.306Z,22.71
2022-10-09T13:52:55.109Z,22.22
2022-10-09T13:55:25.334Z,22.32
2022-10-09T13:58:12.868Z,22.07
2022-10-09T14:00:41.394Z,22.08
2022-10-09T14:03:08.971Z,21.61
2022-10-09T14:05:42.457Z,21.60
2022-10-09T14:08:11.794Z,20.82
2022-10-09T14:10:44.115Z,21.29
2022-10-09T14:13:12.118Z,22.32
2022-10-09T14:15:43.485Z,22.45
2022-10-09T14:18:13.815Z,22.33
2022-10-09T14:20:41.394Z,22.43
2022-10-09T14:23:10.462Z,23.15
2022-10-09T14:25:41.077Z,23.03
2022-10-09T14:28:11.560Z,22.67
2022-10-09T14:30:44.399Z,23.16
2022-10-09T14:33:25.811Z,22.81
2022-10-09T14:35:57.565Z,23.08
2022-10-09T14:38:27.794Z,23.35
2022-10-09T14:40:57.132Z,23.51
2022-10-09T14:43:28.885Z,23.75
2022-10-09T14:46:17.878Z,25.14
2022-10-09T14:48:49.121Z,24.59
2022-10-09T14:51:24.616Z,24.88
2022-10-09T14:53:55.957Z,25.36
2022-10-09T14:56:31.651Z,25.91
2022-10-09T14:59:02.660Z,26.74
2022-10-09T15:01:35.701Z,28.13
2022-10-09T15:04:10.086Z,29.83
2022-10-09T15:06:37.741Z,31.00
2022-10-09T15:09:06.338Z,32.62
2022-10-09T15:11:36.180Z,34.33
2022-10-09T15:14:07.642Z,35.36
2022-10-09T15:16:35.774Z,36.01
2022-10-09T15:19:05.821Z,36.53
2022-10-09T15:21:36.090Z,37.02
2022-10-09T15:24:07.008Z,38.03
2022-10-09T15:26:37.465Z,37.74
2022-10-09T15:29:07.706Z,38.64
2022-10-09T15:31:39.832Z,38.96
2022-10-09T15:34:08.646Z,39.34
2022-10-09T15:36:40.461Z,39.57
2022-10-09T15:39:09.096Z,40.26
2022-10-09T15:41:39.538Z,41.11
2022-10-09T15:44:16.449Z,41.32
2022-10-09T15:46:45.107Z,42.39
2022-10-09T15:49:13.071Z,42.94
2022-10-09T15:51:41.412Z,43.76
2022-10-09T15:54:09.176Z,44.86
2022-10-09T15:56:39.866Z,45.12
2022-10-09T15:59:16.771Z,45.73
2022-10-09T16:01:44.684Z,46.57
2022-10-09T16:04:12.180Z,46.82
2022-10-09T16:06:39.929Z,47.37
2022-10-09T16:09:08.605Z,47.40
2022-10-09T16:11:36.217Z,47.37
2022-10-09T16:14:05.137Z,48.27
2022-10-09T16:16:35.336Z,48.42
2022-10-09T16:19:05.416Z,48.63
2022-10-09T16:21:33.325Z,48.24
2022-10-09T16:24:01.594Z,49.30
2022-10-09T16:26:30.527Z,49.30
2022-10-09T16:29:00.406Z,49.47
2022-10-09T16:31:47.796Z,49.39
2022-10-09T16:34:15.403Z,49.60
2022-10-09T16:39:10.418Z,47.56
2022-10-09T16:41:41.776Z,48.61
2022-10-09T16:44:16.941Z,50.33
2022-10-09T16:46:45.130Z,50.36
2022-10-09T16:49:24.233Z,50.40
2022-10-09T16:51:52.928Z,50.59
2022-10-09T16:54:20.413Z,50.30
2022-10-09T16:56:50.438Z,50.75
2022-10-09T16:59:19.047Z,50.96
2022-10-09T17:01:47.738Z,51.27
2022-10-09T17:04:15.908Z,51.77
2022-10-09T17:06:44.836Z,52.15
2022-10-09T17:09:15.028Z,52.06
2022-10-09T17:11:44.632Z,52.44
2022-10-09T17:14:13.187Z,53.68
2022-10-09T17:16:45.883Z,53.28
2022-10-09T17:19:15.627Z,52.81
2022-10-09T17:21:45.224Z,53.48
2022-10-09T17:24:16.368Z,52.79
2022-10-09T17:26:43.944Z,52.97
2022-10-09T17:29:14.092Z,53.04
2022-10-09T17:31:42.170Z,53.29
2022-10-09T17:34:13.279Z,53.22
2022-10-09T17:36:45.555Z,52.92
2022-10-09T17:39:17.273Z,52.36
2022-10-09T17:41:47.541Z,52.76
2022-10-09T17:44:18.319Z,52.84
2022-10-09T17:46:52.349Z,52.66
2022-10-09T17:49:20.414Z,53.04
2022-10-09T17:51:48.312Z,52.70
2022-10-09T17:54:17.437Z,52.64
2022-10-09T17:56:47.146Z,53.33
2022-10-09T17:59:19.038Z,53.26
2022-10-09T18:01:48.057Z,53.25
2022-10-09T18:04:18.364Z,53.75
2022-10-09T18:06:46.876Z,53.92
2022-10-09T18:09:14.426Z,54.20
2022-10-09T18:11:43.181Z,54.33
2022-10-09T18:14:12.743Z,55.23
2022-10-09T18:16:41.238Z,55.32
2022-10-09T18:19:13.770Z,55.31
2022-10-09T18:21:45.329Z,55.42
2022-10-09T18:24:14.502Z,55.36
2022-10-09T18:26:45.459Z,55.98
2022-10-09T18:29:13.045Z,55.51
2022-10-09T18:31:44.363Z,55.72
2022-10-09T18:34:39.025Z,56.44
2022-10-09T18:37:07.948Z,56.92
2022-10-09T18:39:35.416Z,56.25
2022-10-09T18:42:05.071Z,55.28
2022-10-09T18:44:40.162Z,55.53
2022-10-09T18:47:15.548Z,55.48
2022-10-09T18:49:50.151Z,56.33
2022-10-09T18:52:20.083Z,57.33
2022-10-09T18:54:53.171Z,57.85
2022-10-09T18:57:24.097Z,58.19
2022-10-09T18:59:56.648Z,59.21
2022-10-09T19:02:26.946Z,59.62
2022-10-09T19:04:55.607Z,59.55
2022-10-09T19:07:24.150Z,60.16
2022-10-09T19:09:56.960Z,60.22
2022-10-09T19:12:25.639Z,60.50
2022-10-09T19:14:53.795Z,60.54
2022-10-09T19:17:21.583Z,61.04
2022-10-09T19:19:49.877Z,61.10
2022-10-09T19:22:23.620Z,61.32
2022-10-09T19:24:52.544Z,62.02
2022-10-09T19:27:24.482Z,62.15
2022-10-09T19:29:57.113Z,62.20
2022-10-09T19:32:25.230Z,62.79
2022-10-09T19:34:52.787Z,63.99
2022-10-09T19:37:22.827Z,63.87
2022-10-09T19:39:53.465Z,63.87
2022-10-09T19:42:22.881Z,64.11
2022-10-09T19:44:50.423Z,65.23
2022-10-09T19:47:19.184Z,65.13
2022-10-09T19:49:46.671Z,65.82
2022-10-09T19:52:16.173Z,66.38
2022-10-09T19:54:43.712Z,66.16
2022-10-09T19:57:14.572Z,65.64
2022-10-09T19:59:45.709Z,65.91
2022-10-09T20:02:14.157Z,66.32
2022-10-09T20:04:42.110Z,66.04
2022-10-09T20:07:12.636Z,65.88
2022-10-09T20:09:41.339Z,65.92
2022-10-09T20:12:09.712Z,66.28
2022-10-09T20:14:37.251Z,66.39
2022-10-09T20:17:04.895Z,66.92
2022-10-09T20:19:32.546Z,67.34
2022-10-09T20:22:00.098Z,68.34
2022-10-09T20:24:27.609Z,68.22
2022-10-09T20:26:55.169Z,68.15
2022-10-09T20:29:25.131Z,68.21
2022-10-09T20:31:55.365Z,68.60
2022-10-09T20:34:25.017Z,68.51
2022-10-09T20:36:52.783Z,68.33
2022-10-09T20:39:21.456Z,68.62
2022-10-09T20:41:49.472Z,68.56
2022-10-09T20:44:17.061Z,68.82
2022-10-09T20:46:44.632Z,69.59
2022-10-09T20:49:15.107Z,69.92
2022-10-09T20:51:43.314Z,70.21
2022-10-09T20:54:17.410Z,70.58
2022-10-09T20:56:45.150Z,71.15
2022-10-09T20:59:15.456Z,70.00
2022-10-09T21:01:43.295Z,69.50
2022-10-09T21:04:12.196Z,69.91
2022-10-09T21:06:40.389Z,71.01
2022-10-09T21:09:08.340Z,71.25
2022-10-09T21:11:36.387Z,71.88
2022-10-09T21:14:04.610Z,72.15
2022-10-09T21:16:32.390Z,71.97
2022-10-09T21:19:05.490Z,72.08
2022-10-09T21:21:33.926Z,72.39
2022-10-09T21:24:02.405Z,71.79
2022-10-09T21:26:31.792Z,72.40
2022-10-09T21:29:00.153Z,71.73
2022-10-09T21:31:30.676Z,72.07
2022-10-09T21:33:59.916Z,72.59
2022-10-09T21:37:19.457Z,73.42
2022-10-09T21:39:37.156Z,73.23
2022-10-09T21:42:04.924Z,73.82
2022-10-09T21:44:32.459Z,73.91
2022-10-09T21:47:00.193Z,74.69
2022-10-09T21:49:28.523Z,74.94
2022-10-09T21:51:56.536Z,74.66
2022-10-09T21:54:24.341Z,74.85
2022-10-09T21:56:51.977Z,74.55
2022-10-09T21:59:19.480Z,74.93
2022-10-09T22:01:47.050Z,74.86
2022-10-09T22:04:14.644Z,74.83
2022-10-09T22:06:43.323Z,74.95
2022-10-09T22:09:12.502Z,75.52
2022-10-09T22:11:40.217Z,75.90
2022-10-09T22:14:08.297Z,75.68
2022-10-09T22:16:35.787Z,75.59
2022-10-09T22:19:03.802Z,76.02
2022-10-09T22:21:31.325Z,76.31
2022-10-09T22:24:01.114Z,76.49
2022-10-09T22:26:28.832Z,75.97
2022-10-09T22:28:56.356Z,75.93
2022-10-09T22:31:27.671Z,76.12
2022-10-09T22:33:59.249Z,75.75
2022-10-09T22:36:30.786Z,75.80
2022-10-09T22:39:01.880Z,76.06
2022-10-09T22:41:30.626Z,76.90
2022-10-09T22:44:00.558Z,76.53
2022-10-09T22:46:38.522Z,76.97
2022-10-09T22:49:08.336Z,77.11
2022-10-09T22:51:35.936Z,76.93
2022-10-09T22:54:03.615Z,76.90
2022-10-09T22:56:39.284Z,77.02
2022-10-09T22:59:10.530Z,76.90
2022-10-09T23:01:48.357Z,77.30
2022-10-09T23:04:18.089Z,78.10
2022-10-09T23:06:46.614Z,77.95
2022-10-09T23:09:15.644Z,78.42
2022-10-09T23:11:43.987Z,77.76
2022-10-09T23:14:12.219Z,78.33
2022-10-09T23:16:40.645Z,78.01
2022-10-09T23:19:08.833Z,78.40
2022-10-09T23:21:40.022Z,78.13
2022-10-09T23:24:09.667Z,77.74
2022-10-09T23:26:38.160Z,77.65
2022-10-09T23:29:09.604Z,78.31
2022-10-09T23:31:37.531Z,77.97
2022-10-09T23:34:06.362Z,77.30
2022-10-09T23:36:34.563Z,77.37
2022-10-09T23:39:04.129Z,77.41
2022-10-09T23:41:31.708Z,76.97
2022-10-09T23:43:59.382Z,76.76
2022-10-09T23:46:31.725Z,77.34
2022-10-09T23:48:59.558Z,77.38
2022-10-09T23:51:28.075Z,77.26
2022-10-09T23:53:56.576Z,77.15
2022-10-09T23:56:34.215Z,77.17
2022-10-09T23:59:06.153Z,77.62
